sensor_id;sensor_type;location;lat;lon;timestamp;P1;durP1;ratioP1;P2;durP2;ratioP2
29302;SDS011;60019;45.556;12.004;2022-10-15T00:01:49;50.80;;;30.55;;
29302;SDS011;60019;45.556;12.004;2022-10-15T00:07:51;45.67;;;28.33;;
29302;SDS011;60019;45.556;12.004;2022-10-15T00:13:57;45.05;;;29.75;;
29302;SDS011;60019;45.556;12.004;2022-10-15T00:20:00;46.83;;;28.17;;
29302;SDS011;60019;45.556;12.004;2022-10-15T00:26:03;41.97;;;29.00;;
29302;SDS011;60019;45.556;12.004;2022-10-15T00:32:05;45.70;;;28.10;;
29302;SDS011;60019;45.556;12.004;2022-10-15T00:38:07;44.95;;;29.10;;
29302;SDS011;60019;45.556;12.004;2022-10-15T00:50:24;43.85;;;29.10;;
29302;SDS011;60019;45.556;12.004;2022-10-15T00:56:26;43.90;;;27.33;;
29302;SDS011;60019;45.556;12.004;2022-10-15T01:02:32;45.15;;;28.05;;
29302;SDS011;60019;45.556;12.004;2022-10-15T01:08:33;40.38;;;27.45;;
29302;SDS011;60019;45.556;12.004;2022-10-15T01:14:50;40.17;;;26.70;;
29302;SDS011;60019;45.556;12.004;2022-10-15T01:33:33;42.08;;;26.23;;
29302;SDS011;60019;45.556;12.004;2022-10-15T01:39:41;41.67;;;26.60;;
29302;SDS011;60019;45.556;12.004;2022-10-15T01:45:47;36.15;;;24.13;;
29302;SDS011;60019;45.556;12.004;2022-10-15T01:52:17;39.38;;;24.58;;
29302;SDS011;60019;45.556;12.004;2022-10-15T01:58:21;36.90;;;24.80;;
29302;SDS011;60019;45.556;12.004;2022-10-15T02:04:25;37.88;;;25.58;;
29302;SDS011;60019;45.556;12.004;2022-10-15T02:10:36;36.38;;;25.23;;
29302;SDS011;60019;45.556;12.004;2022-10-15T02:16:43;39.17;;;25.30;;
29302;SDS011;60019;45.556;12.004;2022-10-15T02:22:55;42.78;;;25.23;;
29302;SDS011;60019;45.556;12.004;2022-10-15T02:29:01;38.53;;;24.90;;
29302;SDS011;60019;45.556;12.004;2022-10-15T02:35:05;33.63;;;23.08;;
29302;SDS011;60019;45.556;12.004;2022-10-15T02:41:11;40.22;;;24.10;;
29302;SDS011;60019;45.556;12.004;2022-10-15T02:47:15;43.60;;;26.67;;
29302;SDS011;60019;45.556;12.004;2022-10-15T02:53:17;35.75;;;23.77;;
29302;SDS011;60019;45.556;12.004;2022-10-15T02:59:19;35.10;;;23.50;;
29302;SDS011;60019;45.556;12.004;2022-10-15T03:05:21;39.10;;;25.17;;
29302;SDS011;60019;45.556;12.004;2022-10-15T03:11:23;33.70;;;23.58;;
29302;SDS011;60019;45.556;12.004;2022-10-15T03:17:25;43.53;;;27.13;;
29302;SDS011;60019;45.556;12.004;2022-10-15T03:23:27;47.88;;;34.90;;
29302;SDS011;60019;45.556;12.004;2022-10-15T03:29:40;39.83;;;26.67;;
29302;SDS011;60019;45.556;12.004;2022-10-15T03:35:43;40.15;;;26.08;;
29302;SDS011;60019;45.556;12.004;2022-10-15T03:41:45;34.45;;;22.52;;
29302;SDS011;60019;45.556;12.004;2022-10-15T03:47:54;35.30;;;23.37;;
29302;SDS011;60019;45.556;12.004;2022-10-15T03:53:56;36.40;;;21.83;;
29302;SDS011;60019;45.556;12.004;2022-10-15T03:59:58;32.70;;;21.85;;
29302;SDS011;60019;45.556;12.004;2022-10-15T04:06:02;34.90;;;21.80;;
29302;SDS011;60019;45.556;12.004;2022-10-15T04:12:05;29.42;;;20.63;;
29302;SDS011;60019;45.556;12.004;2022-10-15T04:18:08;28.45;;;21.15;;
29302;SDS011;60019;45.556;12.004;2022-10-15T04:24:10;32.88;;;20.08;;
29302;SDS011;60019;45.556;12.004;2022-10-15T04:30:15;27.30;;;19.40;;
29302;SDS011;60019;45.556;12.004;2022-10-15T04:36:43;33.97;;;19.92;;
29302;SDS011;60019;45.556;12.004;2022-10-15T04:42:53;28.70;;;19.55;;
29302;SDS011;60019;45.556;12.004;2022-10-15T04:48:54;32.03;;;19.73;;
29302;SDS011;60019;45.556;12.004;2022-10-15T04:54:58;27.10;;;18.55;;
29302;SDS011;60019;45.556;12.004;2022-10-15T05:01:07;29.08;;;19.35;;
29302;SDS011;60019;45.556;12.004;2022-10-15T05:07:26;28.77;;;19.02;;
29302;SDS011;60019;45.556;12.004;2022-10-15T05:13:29;29.35;;;18.60;;
29302;SDS011;60019;45.556;12.004;2022-10-15T05:19:32;29.25;;;20.85;;
29302;SDS011;60019;45.556;12.004;2022-10-15T05:25:34;29.38;;;20.60;;
29302;SDS011;60019;45.556;12.004;2022-10-15T05:31:36;25.15;;;18.10;;
29302;SDS011;60019;45.556;12.004;2022-10-15T05:37:43;28.67;;;18.02;;
29302;SDS011;60019;45.556;12.004;2022-10-15T05:43:49;23.73;;;17.15;;
29302;SDS011;60019;45.556;12.004;2022-10-15T05:49:59;28.55;;;19.23;;
29302;SDS011;60019;45.556;12.004;2022-10-15T05:56:05;26.95;;;18.05;;
29302;SDS011;60019;45.556;12.004;2022-10-15T06:02:08;26.42;;;17.13;;
29302;SDS011;60019;45.556;12.004;2022-10-15T06:08:15;33.03;;;20.30;;
29302;SDS011;60019;45.556;12.004;2022-10-15T06:14:17;28.17;;;19.48;;
29302;SDS011;60019;45.556;12.004;2022-10-15T06:20:19;29.83;;;18.42;;
29302;SDS011;60019;45.556;12.004;2022-10-15T06:26:21;30.38;;;19.90;;
29302;SDS011;60019;45.556;12.004;2022-10-15T06:32:23;31.98;;;19.42;;
29302;SDS011;60019;45.556;12.004;2022-10-15T06:38:24;41.42;;;21.75;;
29302;SDS011;60019;45.556;12.004;2022-10-15T06:44:26;33.60;;;19.17;;
29302;SDS011;60019;45.556;12.004;2022-10-15T06:50:28;36.45;;;20.60;;
29302;SDS011;60019;45.556;12.004;2022-10-15T06:56:30;31.45;;;17.83;;
29302;SDS011;60019;45.556;12.004;2022-10-15T07:02:33;35.33;;;18.70;;
29302;SDS011;60019;45.556;12.004;2022-10-15T07:08:36;32.40;;;19.15;;
29302;SDS011;60019;45.556;12.004;2022-10-15T07:14:37;28.48;;;18.13;;
29302;SDS011;60019;45.556;12.004;2022-10-15T07:20:39;27.77;;;18.00;;
29302;SDS011;60019;45.556;12.004;2022-10-15T07:26:41;29.63;;;17.85;;
29302;SDS011;60019;45.556;12.004;2022-10-15T07:32:43;28.88;;;18.17;;
29302;SDS011;60019;45.556;12.004;2022-10-15T07:38:45;25.17;;;17.50;;
29302;SDS011;60019;45.556;12.004;2022-10-15T07:44:47;32.80;;;18.50;;
29302;SDS011;60019;45.556;12.004;2022-10-15T07:50:56;32.05;;;19.88;;
29302;SDS011;60019;45.556;12.004;2022-10-15T07:56:59;27.63;;;18.25;;
29302;SDS011;60019;45.556;12.004;2022-10-15T08:03:01;29.08;;;19.45;;
29302;SDS011;60019;45.556;12.004;2022-10-15T08:09:03;31.48;;;21.80;;
29302;SDS011;60019;45.556;12.004;2022-10-15T08:15:05;35.38;;;18.67;;
29302;SDS011;60019;45.556;12.004;2022-10-15T08:21:07;27.70;;;18.35;;
29302;SDS011;60019;45.556;12.004;2022-10-15T08:27:09;34.20;;;19.33;;
29302;SDS011;60019;45.556;12.004;2022-10-15T08:33:11;29.75;;;19.85;;
29302;SDS011;60019;45.556;12.004;2022-10-15T08:39:13;38.97;;;25.23;;
29302;SDS011;60019;45.556;12.004;2022-10-15T08:45:21;30.98;;;21.08;;
29302;SDS011;60019;45.556;12.004;2022-10-15T08:51:27;30.55;;;18.63;;
29302;SDS011;60019;45.556;12.004;2022-10-15T09:09:47;33.45;;;23.65;;
29302;SDS011;60019;45.556;12.004;2022-10-15T09:15:56;31.85;;;23.05;;
29302;SDS011;60019;45.556;12.004;2022-10-15T09:22:00;28.90;;;20.25;;
29302;SDS011;60019;45.556;12.004;2022-10-15T09:28:08;32.97;;;22.35;;
29302;SDS011;60019;45.556;12.004;2022-10-15T09:34:18;33.30;;;22.42;;
29302;SDS011;60019;45.556;12.004;2022-10-15T09:40:26;31.10;;;22.63;;
29302;SDS011;60019;45.556;12.004;2022-10-15T09:46:30;32.17;;;22.67;;
29302;SDS011;60019;45.556;12.004;2022-10-15T09:52:43;35.90;;;23.95;;
29302;SDS011;60019;45.556;12.004;2022-10-15T09:58:55;28.70;;;21.70;;
29302;SDS011;60019;45.556;12.004;2022-10-15T10:04:57;35.03;;;23.73;;
29302;SDS011;60019;45.556;12.004;2022-10-15T10:11:18;30.25;;;21.45;;
29302;SDS011;60019;45.556;12.004;2022-10-15T10:17:21;32.67;;;23.42;;
29302;SDS011;60019;45.556;12.004;2022-10-15T10:23:24;36.42;;;24.38;;
29302;SDS011;60019;45.556;12.004;2022-10-15T10:29:26;31.85;;;23.80;;
29302;SDS011;60019;45.556;12.004;2022-10-15T10:35:42;39.58;;;28.67;;
29302;SDS011;60019;45.556;12.004;2022-10-15T10:47:52;52.42;;;36.80;;
29302;SDS011;60019;45.556;12.004;2022-10-15T10:53:58;51.88;;;35.70;;
29302;SDS011;60019;45.556;12.004;2022-10-15T11:00:00;52.50;;;32.53;;
29302;SDS011;60019;45.556;12.004;2022-10-15T11:31:28;52.80;;;32.25;;
29302;SDS011;60019;45.556;12.004;2022-10-15T11:56:05;67.90;;;41.92;;
29302;SDS011;60019;45.556;12.004;2022-10-15T12:02:23;66.87;;;42.23;;
29302;SDS011;60019;45.556;12.004;2022-10-15T12:08:27;62.88;;;40.15;;
29302;SDS011;60019;45.556;12.004;2022-10-15T12:27:47;61.28;;;40.15;;
29302;SDS011;60019;45.556;12.004;2022-10-15T12:34:01;66.93;;;40.80;;
29302;SDS011;60019;45.556;12.004;2022-10-15T12:40:46;62.72;;;38.42;;
29302;SDS011;60019;45.556;12.004;2022-10-15T12:46:38;68.05;;;41.05;;
29302;SDS011;60019;45.556;12.004;2022-10-15T12:52:59;55.72;;;34.92;;
29302;SDS011;60019;45.556;12.004;2022-10-15T12:59:02;61.08;;;36.63;;
29302;SDS011;60019;45.556;12.004;2022-10-15T13:05:05;55.55;;;34.72;;
29302;SDS011;60019;45.556;12.004;2022-10-15T13:11:11;47.40;;;31.58;;
29302;SDS011;60019;45.556;12.004;2022-10-15T13:17:19;45.58;;;29.02;;
29302;SDS011;60019;45.556;12.004;2022-10-15T13:23:22;49.92;;;29.90;;
29302;SDS011;60019;45.556;12.004;2022-10-15T13:29:27;52.50;;;30.33;;
29302;SDS011;60019;45.556;12.004;2022-10-15T13:35:30;44.45;;;28.25;;
29302;SDS011;60019;45.556;12.004;2022-10-15T13:41:37;48.97;;;31.83;;
29302;SDS011;60019;45.556;12.004;2022-10-15T13:47:46;43.00;;;27.90;;
29302;SDS011;60019;45.556;12.004;2022-10-15T13:53:52;42.08;;;26.40;;
29302;SDS011;60019;45.556;12.004;2022-10-15T13:59:54;38.92;;;26.10;;
29302;SDS011;60019;45.556;12.004;2022-10-15T14:05:57;40.38;;;26.90;;
29302;SDS011;60019;45.556;12.004;2022-10-15T14:12:00;38.80;;;26.02;;
29302;SDS011;60019;45.556;12.004;2022-10-15T14:33:42;46.13;;;31.00;;
29302;SDS011;60019;45.556;12.004;2022-10-15T14:39:46;38.30;;;23.60;;
29302;SDS011;60019;45.556;12.004;2022-10-15T14:52:07;35.67;;;23.35;;
29302;SDS011;60019;45.556;12.004;2022-10-15T14:58:20;33.53;;;22.52;;
29302;SDS011;60019;45.556;12.004;2022-10-15T15:04:43;47.50;;;28.33;;
29302;SDS011;60019;45.556;12.004;2022-10-15T15:10:45;37.10;;;24.55;;
29302;SDS011;60019;45.556;12.004;2022-10-15T15:16:47;42.22;;;26.02;;
29302;SDS011;60019;45.556;12.004;2022-10-15T15:22:50;40.47;;;27.77;;
29302;SDS011;60019;45.556;12.004;2022-10-15T15:28:53;41.65;;;28.80;;
29302;SDS011;60019;45.556;12.004;2022-10-15T15:34:55;43.03;;;29.30;;
29302;SDS011;60019;45.556;12.004;2022-10-15T15:41:02;43.35;;;28.83;;
29302;SDS011;60019;45.556;12.004;2022-10-15T15:47:04;47.45;;;29.77;;
29302;SDS011;60019;45.556;12.004;2022-10-15T15:53:05;39.60;;;23.85;;
29302;SDS011;60019;45.556;12.004;2022-10-15T15:59:07;41.33;;;27.73;;
29302;SDS011;60019;45.556;12.004;2022-10-15T16:05:11;44.13;;;30.17;;
29302;SDS011;60019;45.556;12.004;2022-10-15T16:11:13;42.85;;;29.20;;
29302;SDS011;60019;45.556;12.004;2022-10-15T16:17:15;41.28;;;28.27;;
29302;SDS011;60019;45.556;12.004;2022-10-15T16:23:17;40.88;;;28.50;;
29302;SDS011;60019;45.556;12.004;2022-10-15T16:29:20;41.85;;;28.63;;
29302;SDS011;60019;45.556;12.004;2022-10-15T16:35:22;38.92;;;27.17;;
29302;SDS011;60019;45.556;12.004;2022-10-15T16:41:24;41.88;;;27.08;;
29302;SDS011;60019;45.556;12.004;2022-10-15T16:47:27;44.47;;;30.02;;
29302;SDS011;60019;45.556;12.004;2022-10-15T16:53:30;43.75;;;29.48;;
29302;SDS011;60019;45.556;12.004;2022-10-15T16:59:33;42.63;;;28.55;;
29302;SDS011;60019;45.556;12.004;2022-10-15T17:05:35;44.53;;;29.67;;
29302;SDS011;60019;45.556;12.004;2022-10-15T17:11:38;48.00;;;32.45;;
29302;SDS011;60019;45.556;12.004;2022-10-15T17:17:42;46.30;;;32.50;;
29302;SDS011;60019;45.556;12.004;2022-10-15T17:23:43;48.53;;;33.15;;
29302;SDS011;60019;45.556;12.004;2022-10-15T17:29:47;50.63;;;33.65;;
29302;SDS011;60019;45.556;12.004;2022-10-15T17:35:54;48.28;;;31.63;;
29302;SDS011;60019;45.556;12.004;2022-10-15T17:41:56;53.67;;;34.20;;
29302;SDS011;60019;45.556;12.004;2022-10-15T17:47:59;54.00;;;32.00;;
29302;SDS011;60019;45.556;12.004;2022-10-15T17:54:01;44.13;;;31.38;;
29302;SDS011;60019;45.556;12.004;2022-10-15T18:00:03;48.63;;;32.17;;
29302;SDS011;60019;45.556;12.004;2022-10-15T18:06:14;51.80;;;32.42;;
29302;SDS011;60019;45.556;12.004;2022-10-15T18:12:15;50.08;;;32.53;;
29302;SDS011;60019;45.556;12.004;2022-10-15T18:18:17;50.42;;;33.88;;
29302;SDS011;60019;45.556;12.004;2022-10-15T18:24:19;53.90;;;33.38;;
29302;SDS011;60019;45.556;12.004;2022-10-15T18:30:21;50.80;;;32.92;;
29302;SDS011;60019;45.556;12.004;2022-10-15T18:36:24;49.72;;;34.22;;
29302;SDS011;60019;45.556;12.004;2022-10-15T18:42:26;51.42;;;33.20;;
29302;SDS011;60019;45.556;12.004;2022-10-15T18:48:27;55.38;;;35.97;;
29302;SDS011;60019;45.556;12.004;2022-10-15T18:54:29;51.92;;;34.40;;
29302;SDS011;60019;45.556;12.004;2022-10-15T19:00:35;55.28;;;35.28;;
29302;SDS011;60019;45.556;12.004;2022-10-15T19:06:41;48.95;;;33.90;;
29302;SDS011;60019;45.556;12.004;2022-10-15T19:12:43;55.03;;;34.45;;
29302;SDS011;60019;45.556;12.004;2022-10-15T19:18:45;55.97;;;34.75;;
29302;SDS011;60019;45.556;12.004;2022-10-15T19:24:47;80.03;;;49.40;;
29302;SDS011;60019;45.556;12.004;2022-10-15T19:30:52;78.22;;;46.35;;
29302;SDS011;60019;45.556;12.004;2022-10-15T19:36:54;432.88;;;236.52;;
29302;SDS011;60019;45.556;12.004;2022-10-15T19:42:56;589.00;;;319.02;;
29302;SDS011;60019;45.556;12.004;2022-10-15T19:48:57;144.75;;;78.45;;
29302;SDS011;60019;45.556;12.004;2022-10-15T19:54:59;128.38;;;69.97;;
29302;SDS011;60019;45.556;12.004;2022-10-15T20:01:02;111.43;;;62.15;;
29302;SDS011;60019;45.556;12.004;2022-10-15T20:07:06;96.68;;;58.00;;
29302;SDS011;60019;45.556;12.004;2022-10-15T20:13:09;97.22;;;58.38;;
29302;SDS011;60019;45.556;12.004;2022-10-15T20:19:11;94.00;;;56.70;;
29302;SDS011;60019;45.556;12.004;2022-10-15T20:25:14;98.43;;;56.22;;
29302;SDS011;60019;45.556;12.004;2022-10-15T20:31:17;89.47;;;54.15;;
29302;SDS011;60019;45.556;12.004;2022-10-15T20:37:27;82.57;;;49.85;;
29302;SDS011;60019;45.556;12.004;2022-10-15T20:43:29;89.40;;;51.33;;
29302;SDS011;60019;45.556;12.004;2022-10-15T20:49:32;82.85;;;48.78;;
29302;SDS011;60019;45.556;12.004;2022-10-15T20:55:35;78.00;;;47.00;;
29302;SDS011;60019;45.556;12.004;2022-10-15T21:01:37;76.43;;;47.67;;
29302;SDS011;60019;45.556;12.004;2022-10-15T21:07:39;72.60;;;44.95;;
29302;SDS011;60019;45.556;12.004;2022-10-15T21:13:40;69.75;;;45.40;;
29302;SDS011;60019;45.556;12.004;2022-10-15T21:19:43;67.72;;;43.42;;
29302;SDS011;60019;45.556;12.004;2022-10-15T21:32:38;64.85;;;40.22;;
29302;SDS011;60019;45.556;12.004;2022-10-15T21:38:40;62.47;;;41.50;;
29302;SDS011;60019;45.556;12.004;2022-10-15T21:44:42;58.05;;;39.65;;
29302;SDS011;60019;45.556;12.004;2022-10-15T21:50:47;60.60;;;40.03;;
29302;SDS011;60019;45.556;12.004;2022-10-15T21:56:49;59.85;;;39.33;;
29302;SDS011;60019;45.556;12.004;2022-10-15T22:02:51;57.25;;;36.90;;
29302;SDS011;60019;45.556;12.004;2022-10-15T22:08:52;64.18;;;40.35;;
29302;SDS011;60019;45.556;12.004;2022-10-15T22:14:56;59.33;;;38.80;;
29302;SDS011;60019;45.556;12.004;2022-10-15T22:27:37;67.90;;;42.17;;
29302;SDS011;60019;45.556;12.004;2022-10-15T22:33:45;58.70;;;38.38;;
29302;SDS011;60019;45.556;12.004;2022-10-15T22:39:47;56.03;;;36.95;;
29302;SDS011;60019;45.556;12.004;2022-10-15T22:45:48;58.20;;;38.20;;
29302;SDS011;60019;45.556;12.004;2022-10-15T22:51:50;62.33;;;38.28;;
29302;SDS011;60019;45.556;12.004;2022-10-15T22:57:52;59.03;;;38.70;;
29302;SDS011;60019;45.556;12.004;2022-10-15T23:03:55;55.03;;;37.28;;
29302;SDS011;60019;45.556;12.004;2022-10-15T23:09:57;55.28;;;37.88;;
29302;SDS011;60019;45.556;12.004;2022-10-15T23:16:33;58.05;;;37.10;;
29302;SDS011;60019;45.556;12.004;2022-10-15T23:22:27;57.80;;;37.55;;
29302;SDS011;60019;45.556;12.004;2022-10-15T23:28:29;53.80;;;35.30;;
29302;SDS011;60019;45.556;12.004;2022-10-15T23:34:31;51.47;;;33.25;;
29302;SDS011;60019;45.556;12.004;2022-10-15T23:40:32;54.40;;;34.75;;
29302;SDS011;60019;45.556;12.004;2022-10-15T23:46:34;49.83;;;33.22;;
29302;SDS011;60019;45.556;12.004;2022-10-15T23:52:36;51.30;;;34.88;;
29302;SDS011;60019;45.556;12.004;2022-10-15T23:58:38;49.40;;;33.60;;
